sensor_id;sensor_type;location;lat;lon;timestamp;P1;durP1;ratioP1;P2;durP2;ratioP2
58240;SDS011;45058;55.772;38.224;2023-11-19T00:00:35;101.57;;;39.27;;
58240;SDS011;45058;55.772;38.224;2023-11-19T00:03:01;99.03;;;37.90;;
58240;SDS011;45058;55.772;38.224;2023-11-19T00:05:27;96.00;;;35.80;;
58240;SDS011;45058;55.772;38.224;2023-11-19T00:07:59;92.13;;;37.20;;
58240;SDS011;45058;55.772;38.224;2023-11-19T00:10:45;81.13;;;34.27;;
58240;SDS011;45058;55.772;38.224;2023-11-19T00:13:34;96.17;;;37.60;;
58240;SDS011;45058;55.772;38.224;2023-11-19T00:16:15;82.67;;;34.67;;
58240;SDS011;45058;55.772;38.224;2023-11-19T00:21:39;98.00;;;32.97;;
58240;SDS011;45058;55.772;38.224;2023-11-19T00:24:06;88.43;;;34.17;;
58240;SDS011;45058;55.772;38.224;2023-11-19T00:26:33;79.43;;;32.90;;
58240;SDS011;45058;55.772;38.224;2023-11-19T00:29:00;85.27;;;33.03;;
58240;SDS011;45058;55.772;38.224;2023-11-19T00:31:26;90.40;;;33.90;;
58240;SDS011;45058;55.772;38.224;2023-11-19T00:33:53;96.27;;;35.27;;
58240;SDS011;45058;55.772;38.224;2023-11-19T00:36:19;90.83;;;35.10;;
58240;SDS011;45058;55.772;38.224;2023-11-19T00:38:47;89.60;;;34.22;;
58240;SDS011;45058;55.772;38.224;2023-11-19T00:41:13;95.93;;;35.67;;
58240;SDS011;45058;55.772;38.224;2023-11-19T00:43:42;84.90;;;34.77;;
58240;SDS011;45058;55.772;38.224;2023-11-19T00:46:08;104.27;;;36.97;;
58240;SDS011;45058;55.772;38.224;2023-11-19T00:48:36;98.60;;;37.40;;
58240;SDS011;45058;55.772;38.224;2023-11-19T00:51:03;98.03;;;36.60;;
58240;SDS011;45058;55.772;38.224;2023-11-19T00:53:32;104.17;;;37.50;;
58240;SDS011;45058;55.772;38.224;2023-11-19T00:56:00;97.57;;;37.90;;
58240;SDS011;45058;55.772;38.224;2023-11-19T00:58:27;103.30;;;38.13;;
58240;SDS011;45058;55.772;38.224;2023-11-19T01:00:53;106.57;;;39.83;;
58240;SDS011;45058;55.772;38.224;2023-11-19T01:03:19;107.40;;;41.70;;
58240;SDS011;45058;55.772;38.224;2023-11-19T01:05:45;123.83;;;45.23;;
58240;SDS011;45058;55.772;38.224;2023-11-19T01:08:12;107.50;;;43.90;;
58240;SDS011;45058;55.772;38.224;2023-11-19T01:10:38;107.30;;;43.73;;
58240;SDS011;45058;55.772;38.224;2023-11-19T01:13:04;105.50;;;43.70;;
58240;SDS011;45058;55.772;38.224;2023-11-19T01:15:33;116.13;;;45.93;;
58240;SDS011;45058;55.772;38.224;2023-11-19T01:18:00;116.50;;;43.60;;
58240;SDS011;45058;55.772;38.224;2023-11-19T01:20:27;110.23;;;44.73;;
58240;SDS011;45058;55.772;38.224;2023-11-19T01:22:54;105.17;;;43.93;;
58240;SDS011;45058;55.772;38.224;2023-11-19T01:25:21;105.23;;;43.87;;
58240;SDS011;45058;55.772;38.224;2023-11-19T01:27:47;110.53;;;42.83;;
58240;SDS011;45058;55.772;38.224;2023-11-19T01:30:15;110.43;;;43.73;;
58240;SDS011;45058;55.772;38.224;2023-11-19T01:32:41;118.57;;;44.67;;
58240;SDS011;45058;55.772;38.224;2023-11-19T01:35:08;103.70;;;43.57;;
58240;SDS011;45058;55.772;38.224;2023-11-19T01:37:35;124.83;;;44.50;;
58240;SDS011;45058;55.772;38.224;2023-11-19T01:40:02;114.23;;;44.13;;
58240;SDS011;45058;55.772;38.224;2023-11-19T01:42:38;114.53;;;43.07;;
58240;SDS011;45058;55.772;38.224;2023-11-19T01:45:05;112.67;;;45.10;;
58240;SDS011;45058;55.772;38.224;2023-11-19T01:47:35;110.33;;;42.70;;
58240;SDS011;45058;55.772;38.224;2023-11-19T01:50:05;118.20;;;46.77;;
58240;SDS011;45058;55.772;38.224;2023-11-19T01:52:33;118.50;;;47.03;;
58240;SDS011;45058;55.772;38.224;2023-11-19T01:55:02;117.50;;;46.17;;
58240;SDS011;45058;55.772;38.224;2023-11-19T01:57:31;131.57;;;45.93;;
58240;SDS011;45058;55.772;38.224;2023-11-19T01:59:57;119.20;;;47.17;;
58240;SDS011;45058;55.772;38.224;2023-11-19T02:02:24;110.70;;;43.93;;
58240;SDS011;45058;55.772;38.224;2023-11-19T02:04:51;127.87;;;46.87;;
58240;SDS011;45058;55.772;38.224;2023-11-19T02:07:17;115.90;;;45.10;;
58240;SDS011;45058;55.772;38.224;2023-11-19T02:09:44;127.23;;;49.87;;
58240;SDS011;45058;55.772;38.224;2023-11-19T02:12:11;108.97;;;46.23;;
58240;SDS011;45058;55.772;38.224;2023-11-19T02:14:38;117.23;;;47.47;;
58240;SDS011;45058;55.772;38.224;2023-11-19T02:17:05;120.20;;;48.47;;
58240;SDS011;45058;55.772;38.224;2023-11-19T02:19:32;116.83;;;45.87;;
58240;SDS011;45058;55.772;38.224;2023-11-19T02:21:59;115.17;;;47.83;;
58240;SDS011;45058;55.772;38.224;2023-11-19T02:24:26;115.23;;;46.10;;
58240;SDS011;45058;55.772;38.224;2023-11-19T02:29:51;118.20;;;47.70;;
58240;SDS011;45058;55.772;38.224;2023-11-19T02:32:19;103.73;;;45.23;;
58240;SDS011;45058;55.772;38.224;2023-11-19T02:34:45;111.33;;;45.57;;
58240;SDS011;45058;55.772;38.224;2023-11-19T02:37:11;104.87;;;44.87;;
58240;SDS011;45058;55.772;38.224;2023-11-19T02:39:38;99.00;;;44.80;;
58240;SDS011;45058;55.772;38.224;2023-11-19T02:42:04;95.07;;;42.67;;
58240;SDS011;45058;55.772;38.224;2023-11-19T02:44:32;102.10;;;44.63;;
58240;SDS011;45058;55.772;38.224;2023-11-19T02:46:58;106.37;;;45.00;;
58240;SDS011;45058;55.772;38.224;2023-11-19T02:49:25;115.63;;;46.90;;
58240;SDS011;45058;55.772;38.224;2023-11-19T02:51:51;99.27;;;44.07;;
58240;SDS011;45058;55.772;38.224;2023-11-19T02:54:18;111.57;;;45.50;;
58240;SDS011;45058;55.772;38.224;2023-11-19T02:56:45;101.27;;;46.30;;
58240;SDS011;45058;55.772;38.224;2023-11-19T02:59:13;109.37;;;45.10;;
58240;SDS011;45058;55.772;38.224;2023-11-19T03:01:53;121.43;;;46.80;;
58240;SDS011;45058;55.772;38.224;2023-11-19T03:04:20;105.70;;;42.70;;
58240;SDS011;45058;55.772;38.224;2023-11-19T03:06:48;109.37;;;46.40;;
58240;SDS011;45058;55.772;38.224;2023-11-19T03:09:14;112.17;;;45.17;;
58240;SDS011;45058;55.772;38.224;2023-11-19T03:11:40;113.33;;;43.50;;
58240;SDS011;45058;55.772;38.224;2023-11-19T03:14:06;103.37;;;42.43;;
58240;SDS011;45058;55.772;38.224;2023-11-19T03:16:33;108.07;;;42.67;;
58240;SDS011;45058;55.772;38.224;2023-11-19T03:18:59;110.57;;;44.30;;
58240;SDS011;45058;55.772;38.224;2023-11-19T03:21:29;105.73;;;42.67;;
58240;SDS011;45058;55.772;38.224;2023-11-19T03:23:59;102.43;;;40.53;;
58240;SDS011;45058;55.772;38.224;2023-11-19T03:26:26;106.07;;;41.07;;
58240;SDS011;45058;55.772;38.224;2023-11-19T03:28:53;105.27;;;42.80;;
58240;SDS011;45058;55.772;38.224;2023-11-19T03:31:20;96.40;;;41.47;;
58240;SDS011;45058;55.772;38.224;2023-11-19T03:33:46;107.47;;;43.73;;
58240;SDS011;45058;55.772;38.224;2023-11-19T03:36:12;105.10;;;41.63;;
58240;SDS011;45058;55.772;38.224;2023-11-19T03:38:38;105.90;;;43.07;;
58240;SDS011;45058;55.772;38.224;2023-11-19T03:41:11;102.97;;;41.40;;
58240;SDS011;45058;55.772;38.224;2023-11-19T03:43:40;94.80;;;41.80;;
58240;SDS011;45058;55.772;38.224;2023-11-19T03:46:17;98.13;;;42.10;;
58240;SDS011;45058;55.772;38.224;2023-11-19T03:48:43;90.33;;;41.80;;
58240;SDS011;45058;55.772;38.224;2023-11-19T03:51:09;96.60;;;43.10;;
58240;SDS011;45058;55.772;38.224;2023-11-19T03:53:37;94.97;;;42.27;;
58240;SDS011;45058;55.772;38.224;2023-11-19T03:56:03;108.33;;;45.97;;
58240;SDS011;45058;55.772;38.224;2023-11-19T03:58:30;112.53;;;46.33;;
58240;SDS011;45058;55.772;38.224;2023-11-19T04:00:56;117.43;;;48.27;;
58240;SDS011;45058;55.772;38.224;2023-11-19T04:03:22;109.93;;;48.23;;
58240;SDS011;45058;55.772;38.224;2023-11-19T04:05:48;98.57;;;46.83;;
58240;SDS011;45058;55.772;38.224;2023-11-19T04:08:15;99.60;;;47.57;;
58240;SDS011;45058;55.772;38.224;2023-11-19T04:10:41;110.00;;;49.43;;
58240;SDS011;45058;55.772;38.224;2023-11-19T04:13:07;100.10;;;46.90;;
58240;SDS011;45058;55.772;38.224;2023-11-19T04:15:33;100.20;;;48.20;;
58240;SDS011;45058;55.772;38.224;2023-11-19T04:17:59;108.67;;;49.77;;
58240;SDS011;45058;55.772;38.224;2023-11-19T04:20:26;112.20;;;50.20;;
58240;SDS011;45058;55.772;38.224;2023-11-19T04:22:54;107.73;;;47.90;;
58240;SDS011;45058;55.772;38.224;2023-11-19T04:25:21;115.67;;;54.40;;
58240;SDS011;45058;55.772;38.224;2023-11-19T04:27:50;113.33;;;54.57;;
58240;SDS011;45058;55.772;38.224;2023-11-19T04:30:16;112.80;;;55.37;;
58240;SDS011;45058;55.772;38.224;2023-11-19T04:32:42;107.40;;;54.10;;
58240;SDS011;45058;55.772;38.224;2023-11-19T04:35:08;109.50;;;52.23;;
58240;SDS011;45058;55.772;38.224;2023-11-19T04:37:35;100.57;;;48.13;;
58240;SDS011;45058;55.772;38.224;2023-11-19T04:40:01;97.97;;;46.83;;
58240;SDS011;45058;55.772;38.224;2023-11-19T04:42:29;97.00;;;41.93;;
58240;SDS011;45058;55.772;38.224;2023-11-19T04:44:57;94.77;;;37.37;;
58240;SDS011;45058;55.772;38.224;2023-11-19T04:47:23;69.47;;;31.97;;
58240;SDS011;45058;55.772;38.224;2023-11-19T04:49:49;59.60;;;26.87;;
58240;SDS011;45058;55.772;38.224;2023-11-19T04:52:15;64.37;;;28.43;;
58240;SDS011;45058;55.772;38.224;2023-11-19T04:54:42;57.10;;;27.30;;
58240;SDS011;45058;55.772;38.224;2023-11-19T04:57:09;58.83;;;25.67;;
58240;SDS011;45058;55.772;38.224;2023-11-19T04:59:38;58.07;;;27.40;;
58240;SDS011;45058;55.772;38.224;2023-11-19T05:02:05;62.77;;;30.87;;
58240;SDS011;45058;55.772;38.224;2023-11-19T05:04:31;72.30;;;33.77;;
58240;SDS011;45058;55.772;38.224;2023-11-19T05:06:58;82.13;;;36.17;;
58240;SDS011;45058;55.772;38.224;2023-11-19T05:09:24;82.27;;;36.77;;
58240;SDS011;45058;55.772;38.224;2023-11-19T05:11:50;71.57;;;35.20;;
58240;SDS011;45058;55.772;38.224;2023-11-19T05:14:16;73.67;;;36.43;;
58240;SDS011;45058;55.772;38.224;2023-11-19T05:16:44;74.67;;;31.00;;
58240;SDS011;45058;55.772;38.224;2023-11-19T05:19:10;73.20;;;33.50;;
58240;SDS011;45058;55.772;38.224;2023-11-19T05:21:37;55.63;;;25.30;;
58240;SDS011;45058;55.772;38.224;2023-11-19T05:24:03;54.80;;;25.27;;
58240;SDS011;45058;55.772;38.224;2023-11-19T05:26:32;53.00;;;25.80;;
58240;SDS011;45058;55.772;38.224;2023-11-19T05:28:58;58.73;;;25.27;;
58240;SDS011;45058;55.772;38.224;2023-11-19T05:31:24;64.50;;;27.70;;
58240;SDS011;45058;55.772;38.224;2023-11-19T05:33:50;72.17;;;31.33;;
58240;SDS011;45058;55.772;38.224;2023-11-19T05:36:17;61.17;;;28.57;;
58240;SDS011;45058;55.772;38.224;2023-11-19T05:38:43;61.73;;;29.43;;
58240;SDS011;45058;55.772;38.224;2023-11-19T05:41:10;61.07;;;29.13;;
58240;SDS011;45058;55.772;38.224;2023-11-19T05:43:36;55.07;;;28.80;;
58240;SDS011;45058;55.772;38.224;2023-11-19T05:46:03;55.57;;;26.37;;
58240;SDS011;45058;55.772;38.224;2023-11-19T05:48:29;55.80;;;25.67;;
58240;SDS011;45058;55.772;38.224;2023-11-19T05:50:55;56.67;;;27.07;;
58240;SDS011;45058;55.772;38.224;2023-11-19T05:53:21;49.37;;;23.77;;
58240;SDS011;45058;55.772;38.224;2023-11-19T05:55:47;56.50;;;25.63;;
58240;SDS011;45058;55.772;38.224;2023-11-19T05:58:23;43.50;;;22.55;;
58240;SDS011;45058;55.772;38.224;2023-11-19T06:00:55;63.17;;;27.73;;
58240;SDS011;45058;55.772;38.224;2023-11-19T06:03:21;65.77;;;29.83;;
58240;SDS011;45058;55.772;38.224;2023-11-19T06:05:48;49.17;;;24.83;;
58240;SDS011;45058;55.772;38.224;2023-11-19T06:08:14;47.43;;;24.63;;
58240;SDS011;45058;55.772;38.224;2023-11-19T06:10:42;45.03;;;23.87;;
58240;SDS011;45058;55.772;38.224;2023-11-19T06:13:09;60.73;;;26.30;;
58240;SDS011;45058;55.772;38.224;2023-11-19T06:15:36;62.43;;;25.93;;
58240;SDS011;45058;55.772;38.224;2023-11-19T06:18:03;56.57;;;25.03;;
58240;SDS011;45058;55.772;38.224;2023-11-19T06:20:29;56.17;;;25.07;;
58240;SDS011;45058;55.772;38.224;2023-11-19T06:22:57;56.70;;;25.10;;
58240;SDS011;45058;55.772;38.224;2023-11-19T06:25:24;55.47;;;26.47;;
58240;SDS011;45058;55.772;38.224;2023-11-19T06:27:51;54.47;;;25.83;;
58240;SDS011;45058;55.772;38.224;2023-11-19T06:30:18;59.97;;;26.97;;
58240;SDS011;45058;55.772;38.224;2023-11-19T06:32:45;56.73;;;27.93;;
58240;SDS011;45058;55.772;38.224;2023-11-19T06:35:11;59.73;;;28.50;;
58240;SDS011;45058;55.772;38.224;2023-11-19T06:37:39;56.07;;;29.10;;
58240;SDS011;45058;55.772;38.224;2023-11-19T06:40:06;61.37;;;28.17;;
58240;SDS011;45058;55.772;38.224;2023-11-19T06:42:35;62.67;;;30.07;;
58240;SDS011;45058;55.772;38.224;2023-11-19T06:45:01;58.13;;;29.73;;
58240;SDS011;45058;55.772;38.224;2023-11-19T06:47:31;59.63;;;28.13;;
58240;SDS011;45058;55.772;38.224;2023-11-19T06:49:57;62.60;;;29.63;;
58240;SDS011;45058;55.772;38.224;2023-11-19T06:52:24;61.20;;;30.17;;
58240;SDS011;45058;55.772;38.224;2023-11-19T06:54:50;71.03;;;30.03;;
58240;SDS011;45058;55.772;38.224;2023-11-19T06:57:16;58.83;;;30.00;;
58240;SDS011;45058;55.772;38.224;2023-11-19T06:59:42;68.43;;;30.97;;
58240;SDS011;45058;55.772;38.224;2023-11-19T07:02:09;63.57;;;30.23;;
58240;SDS011;45058;55.772;38.224;2023-11-19T07:04:35;63.70;;;29.97;;
58240;SDS011;45058;55.772;38.224;2023-11-19T07:07:01;61.30;;;30.90;;
58240;SDS011;45058;55.772;38.224;2023-11-19T07:09:28;62.77;;;30.10;;
58240;SDS011;45058;55.772;38.224;2023-11-19T07:11:54;66.47;;;30.83;;
58240;SDS011;45058;55.772;38.224;2023-11-19T07:14:21;63.30;;;28.73;;
58240;SDS011;45058;55.772;38.224;2023-11-19T07:16:49;65.70;;;29.37;;
58240;SDS011;45058;55.772;38.224;2023-11-19T07:19:16;57.00;;;28.17;;
58240;SDS011;45058;55.772;38.224;2023-11-19T07:21:42;53.17;;;27.37;;
58240;SDS011;45058;55.772;38.224;2023-11-19T07:24:10;54.53;;;27.40;;
58240;SDS011;45058;55.772;38.224;2023-11-19T07:26:43;55.10;;;26.93;;
58240;SDS011;45058;55.772;38.224;2023-11-19T07:29:13;59.53;;;27.70;;
58240;SDS011;45058;55.772;38.224;2023-11-19T07:31:44;55.70;;;26.57;;
58240;SDS011;45058;55.772;38.224;2023-11-19T07:34:10;52.90;;;25.67;;
58240;SDS011;45058;55.772;38.224;2023-11-19T07:36:37;46.00;;;25.17;;
58240;SDS011;45058;55.772;38.224;2023-11-19T07:39:04;58.63;;;26.23;;
58240;SDS011;45058;55.772;38.224;2023-11-19T07:41:31;41.07;;;22.93;;
58240;SDS011;45058;55.772;38.224;2023-11-19T07:43:57;44.83;;;21.73;;
58240;SDS011;45058;55.772;38.224;2023-11-19T07:46:23;42.27;;;21.70;;
58240;SDS011;45058;55.772;38.224;2023-11-19T07:48:51;46.30;;;21.07;;
58240;SDS011;45058;55.772;38.224;2023-11-19T07:51:18;41.00;;;20.13;;
58240;SDS011;45058;55.772;38.224;2023-11-19T07:53:44;34.27;;;17.83;;
58240;SDS011;45058;55.772;38.224;2023-11-19T07:56:11;38.70;;;18.30;;
58240;SDS011;45058;55.772;38.224;2023-11-19T07:58:39;32.03;;;18.13;;
58240;SDS011;45058;55.772;38.224;2023-11-19T08:01:05;37.60;;;18.80;;
58240;SDS011;45058;55.772;38.224;2023-11-19T08:03:32;41.37;;;19.10;;
58240;SDS011;45058;55.772;38.224;2023-11-19T08:06:00;33.87;;;17.60;;
58240;SDS011;45058;55.772;38.224;2023-11-19T08:08:27;29.23;;;17.00;;
58240;SDS011;45058;55.772;38.224;2023-11-19T08:10:55;32.87;;;17.57;;
58240;SDS011;45058;55.772;38.224;2023-11-19T08:13:23;30.27;;;13.27;;
58240;SDS011;45058;55.772;38.224;2023-11-19T08:15:50;25.03;;;14.23;;
58240;SDS011;45058;55.772;38.224;2023-11-19T08:18:17;20.80;;;12.07;;
58240;SDS011;45058;55.772;38.224;2023-11-19T08:20:44;30.50;;;17.43;;
58240;SDS011;45058;55.772;38.224;2023-11-19T08:23:10;18.43;;;11.60;;
58240;SDS011;45058;55.772;38.224;2023-11-19T08:25:37;23.90;;;12.73;;
58240;SDS011;45058;55.772;38.224;2023-11-19T08:28:03;23.97;;;14.70;;
58240;SDS011;45058;55.772;38.224;2023-11-19T08:30:29;41.60;;;24.37;;
58240;SDS011;45058;55.772;38.224;2023-11-19T08:32:56;22.40;;;11.57;;
58240;SDS011;45058;55.772;38.224;2023-11-19T08:35:22;14.60;;;8.83;;
58240;SDS011;45058;55.772;38.224;2023-11-19T08:37:49;17.67;;;9.53;;
58240;SDS011;45058;55.772;38.224;2023-11-19T08:40:16;16.60;;;9.53;;
58240;SDS011;45058;55.772;38.224;2023-11-19T08:42:43;23.33;;;15.53;;
58240;SDS011;45058;55.772;38.224;2023-11-19T08:45:10;17.90;;;10.10;;
58240;SDS011;45058;55.772;38.224;2023-11-19T08:47:39;23.63;;;12.43;;
58240;SDS011;45058;55.772;38.224;2023-11-19T08:50:06;24.77;;;14.10;;
58240;SDS011;45058;55.772;38.224;2023-11-19T08:52:34;32.07;;;20.57;;
58240;SDS011;45058;55.772;38.224;2023-11-19T08:55:00;17.40;;;10.10;;
58240;SDS011;45058;55.772;38.224;2023-11-19T08:57:27;19.40;;;10.80;;
58240;SDS011;45058;55.772;38.224;2023-11-19T08:59:53;18.20;;;9.70;;
58240;SDS011;45058;55.772;38.224;2023-11-19T09:02:19;17.87;;;9.67;;
58240;SDS011;45058;55.772;38.224;2023-11-19T09:04:45;20.77;;;9.60;;
58240;SDS011;45058;55.772;38.224;2023-11-19T09:07:12;16.93;;;9.23;;
58240;SDS011;45058;55.772;38.224;2023-11-19T09:09:38;15.23;;;8.43;;
58240;SDS011;45058;55.772;38.224;2023-11-19T09:12:04;18.33;;;10.50;;
58240;SDS011;45058;55.772;38.224;2023-11-19T09:14:31;11.93;;;7.40;;
58240;SDS011;45058;55.772;38.224;2023-11-19T09:16:57;15.43;;;8.50;;
58240;SDS011;45058;55.772;38.224;2023-11-19T09:19:24;23.27;;;10.13;;
58240;SDS011;45058;55.772;38.224;2023-11-19T09:21:52;22.07;;;11.70;;
58240;SDS011;45058;55.772;38.224;2023-11-19T09:24:18;16.73;;;9.23;;
58240;SDS011;45058;55.772;38.224;2023-11-19T09:26:44;13.83;;;9.00;;
58240;SDS011;45058;55.772;38.224;2023-11-19T09:29:11;19.47;;;9.80;;
58240;SDS011;45058;55.772;38.224;2023-11-19T09:31:37;18.90;;;10.37;;
58240;SDS011;45058;55.772;38.224;2023-11-19T09:34:04;20.40;;;9.80;;
58240;SDS011;45058;55.772;38.224;2023-11-19T09:36:31;24.30;;;12.17;;
58240;SDS011;45058;55.772;38.224;2023-11-19T09:38:58;21.00;;;11.03;;
58240;SDS011;45058;55.772;38.224;2023-11-19T09:41:26;21.63;;;12.63;;
58240;SDS011;45058;55.772;38.224;2023-11-19T09:43:53;60.20;;;33.43;;
58240;SDS011;45058;55.772;38.224;2023-11-19T09:46:19;38.07;;;22.70;;
58240;SDS011;45058;55.772;38.224;2023-11-19T09:48:47;43.00;;;24.83;;
58240;SDS011;45058;55.772;38.224;2023-11-19T09:51:18;36.93;;;21.67;;
58240;SDS011;45058;55.772;38.224;2023-11-19T09:53:44;36.47;;;20.30;;
58240;SDS011;45058;55.772;38.224;2023-11-19T09:56:10;26.73;;;13.33;;
58240;SDS011;45058;55.772;38.224;2023-11-19T09:58:41;37.80;;;20.00;;
58240;SDS011;45058;55.772;38.224;2023-11-19T10:01:07;47.03;;;23.47;;
58240;SDS011;45058;55.772;38.224;2023-11-19T10:03:38;30.40;;;15.33;;
58240;SDS011;45058;55.772;38.224;2023-11-19T10:06:07;20.47;;;13.17;;
58240;SDS011;45058;55.772;38.224;2023-11-19T10:08:34;23.13;;;10.03;;
58240;SDS011;45058;55.772;38.224;2023-11-19T10:11:03;25.73;;;14.77;;
58240;SDS011;45058;55.772;38.224;2023-11-19T10:13:30;18.20;;;10.17;;
58240;SDS011;45058;55.772;38.224;2023-11-19T10:15:56;27.10;;;14.50;;
58240;SDS011;45058;55.772;38.224;2023-11-19T10:18:24;25.43;;;14.17;;
58240;SDS011;45058;55.772;38.224;2023-11-19T10:20:51;25.07;;;12.63;;
58240;SDS011;45058;55.772;38.224;2023-11-19T10:23:18;31.90;;;15.73;;
58240;SDS011;45058;55.772;38.224;2023-11-19T10:25:45;23.53;;;10.83;;
58240;SDS011;45058;55.772;38.224;2023-11-19T10:28:12;19.40;;;10.10;;
58240;SDS011;45058;55.772;38.224;2023-11-19T10:30:42;26.03;;;10.97;;
58240;SDS011;45058;55.772;38.224;2023-11-19T10:33:09;15.57;;;9.60;;
58240;SDS011;45058;55.772;38.224;2023-11-19T10:35:53;19.13;;;12.70;;
58240;SDS011;45058;55.772;38.224;2023-11-19T10:38:20;16.50;;;10.00;;
58240;SDS011;45058;55.772;38.224;2023-11-19T10:40:50;15.67;;;9.33;;
58240;SDS011;45058;55.772;38.224;2023-11-19T10:43:20;14.17;;;8.77;;
58240;SDS011;45058;55.772;38.224;2023-11-19T10:45:48;18.87;;;10.10;;
58240;SDS011;45058;55.772;38.224;2023-11-19T10:48:15;22.53;;;10.43;;
58240;SDS011;45058;55.772;38.224;2023-11-19T10:50:42;29.50;;;17.90;;
58240;SDS011;45058;55.772;38.224;2023-11-19T10:53:10;20.60;;;12.80;;
58240;SDS011;45058;55.772;38.224;2023-11-19T10:55:40;21.83;;;12.10;;
58240;SDS011;45058;55.772;38.224;2023-11-19T10:58:07;21.50;;;12.53;;
58240;SDS011;45058;55.772;38.224;2023-11-19T11:00:39;25.13;;;10.80;;
58240;SDS011;45058;55.772;38.224;2023-11-19T11:03:21;22.73;;;11.40;;
58240;SDS011;45058;55.772;38.224;2023-11-19T11:05:49;23.35;;;13.73;;
58240;SDS011;45058;55.772;38.224;2023-11-19T11:08:16;19.20;;;10.97;;
58240;SDS011;45058;55.772;38.224;2023-11-19T11:10:54;22.73;;;10.43;;
58240;SDS011;45058;55.772;38.224;2023-11-19T11:13:22;21.27;;;12.63;;
58240;SDS011;45058;55.772;38.224;2023-11-19T11:15:58;23.87;;;11.50;;
58240;SDS011;45058;55.772;38.224;2023-11-19T11:18:26;20.60;;;12.47;;
58240;SDS011;45058;55.772;38.224;2023-11-19T11:20:55;23.00;;;11.30;;
58240;SDS011;45058;55.772;38.224;2023-11-19T11:29:02;24.00;;;11.87;;
58240;SDS011;45058;55.772;38.224;2023-11-19T11:37:00;20.90;;;11.07;;
58240;SDS011;45058;55.772;38.224;2023-11-19T11:39:36;21.10;;;11.57;;
58240;SDS011;45058;55.772;38.224;2023-11-19T11:45:08;23.50;;;11.30;;
58240;SDS011;45058;55.772;38.224;2023-11-19T11:50:18;25.77;;;11.13;;
58240;SDS011;45058;55.772;38.224;2023-11-19T11:53:18;22.07;;;12.23;;
58240;SDS011;45058;55.772;38.224;2023-11-19T11:58:17;17.50;;;9.93;;
58240;SDS011;45058;55.772;38.224;2023-11-19T12:00:47;21.73;;;12.33;;
58240;SDS011;45058;55.772;38.224;2023-11-19T12:03:15;22.77;;;10.57;;
58240;SDS011;45058;55.772;38.224;2023-11-19T12:05:45;19.97;;;11.40;;
58240;SDS011;45058;55.772;38.224;2023-11-19T12:08:12;16.77;;;9.90;;
58240;SDS011;45058;55.772;38.224;2023-11-19T12:10:49;21.10;;;12.00;;
58240;SDS011;45058;55.772;38.224;2023-11-19T12:13:16;17.73;;;10.53;;
58240;SDS011;45058;55.772;38.224;2023-11-19T12:20:58;27.93;;;14.43;;
58240;SDS011;45058;55.772;38.224;2023-11-19T12:23:30;20.83;;;12.50;;
58240;SDS011;45058;55.772;38.224;2023-11-19T12:25:58;27.50;;;15.33;;
58240;SDS011;45058;55.772;38.224;2023-11-19T12:28:24;23.37;;;12.67;;
58240;SDS011;45058;55.772;38.224;2023-11-19T12:30:53;21.07;;;13.20;;
58240;SDS011;45058;55.772;38.224;2023-11-19T12:33:19;28.70;;;16.17;;
58240;SDS011;45058;55.772;38.224;2023-11-19T12:35:47;50.60;;;33.77;;
58240;SDS011;45058;55.772;38.224;2023-11-19T12:38:19;28.13;;;16.70;;
58240;SDS011;45058;55.772;38.224;2023-11-19T12:40:47;29.00;;;16.03;;
58240;SDS011;45058;55.772;38.224;2023-11-19T12:43:22;21.23;;;12.17;;
58240;SDS011;45058;55.772;38.224;2023-11-19T12:45:49;19.15;;;11.02;;
58240;SDS011;45058;55.772;38.224;2023-11-19T12:48:16;22.67;;;11.40;;
58240;SDS011;45058;55.772;38.224;2023-11-19T12:53:26;17.43;;;10.70;;
58240;SDS011;45058;55.772;38.224;2023-11-19T12:55:54;19.43;;;9.67;;
58240;SDS011;45058;55.772;38.224;2023-11-19T12:58:30;18.13;;;9.90;;
58240;SDS011;45058;55.772;38.224;2023-11-19T13:01:06;17.73;;;10.20;;
58240;SDS011;45058;55.772;38.224;2023-11-19T13:03:34;22.97;;;11.40;;
58240;SDS011;45058;55.772;38.224;2023-11-19T13:06:09;20.40;;;10.50;;
58240;SDS011;45058;55.772;38.224;2023-11-19T13:08:43;22.07;;;10.30;;
58240;SDS011;45058;55.772;38.224;2023-11-19T13:11:33;21.00;;;10.90;;
58240;SDS011;45058;55.772;38.224;2023-11-19T13:14:03;17.37;;;10.23;;
58240;SDS011;45058;55.772;38.224;2023-11-19T13:16:30;20.60;;;11.37;;
58240;SDS011;45058;55.772;38.224;2023-11-19T13:18:57;20.50;;;11.43;;
58240;SDS011;45058;55.772;38.224;2023-11-19T13:21:25;22.73;;;12.03;;
58240;SDS011;45058;55.772;38.224;2023-11-19T13:23:52;24.03;;;12.80;;
58240;SDS011;45058;55.772;38.224;2023-11-19T13:26:18;27.83;;;13.47;;
58240;SDS011;45058;55.772;38.224;2023-11-19T13:28:44;26.70;;;14.03;;
58240;SDS011;45058;55.772;38.224;2023-11-19T13:31:10;24.93;;;12.40;;
58240;SDS011;45058;55.772;38.224;2023-11-19T13:33:37;21.93;;;11.67;;
58240;SDS011;45058;55.772;38.224;2023-11-19T13:36:04;25.30;;;12.50;;
58240;SDS011;45058;55.772;38.224;2023-11-19T13:38:35;24.77;;;12.47;;
58240;SDS011;45058;55.772;38.224;2023-11-19T13:41:02;26.67;;;11.87;;
58240;SDS011;45058;55.772;38.224;2023-11-19T13:43:30;23.47;;;13.40;;
58240;SDS011;45058;55.772;38.224;2023-11-19T13:45:57;20.77;;;12.03;;
58240;SDS011;45058;55.772;38.224;2023-11-19T13:48:26;33.97;;;12.80;;
58240;SDS011;45058;55.772;38.224;2023-11-19T13:50:55;28.20;;;13.07;;
58240;SDS011;45058;55.772;38.224;2023-11-19T13:53:22;18.07;;;12.17;;
58240;SDS011;45058;55.772;38.224;2023-11-19T13:55:50;31.70;;;13.47;;
58240;SDS011;45058;55.772;38.224;2023-11-19T13:58:17;26.33;;;13.70;;
58240;SDS011;45058;55.772;38.224;2023-11-19T14:00:44;27.80;;;12.90;;
58240;SDS011;45058;55.772;38.224;2023-11-19T14:03:10;32.70;;;13.50;;
58240;SDS011;45058;55.772;38.224;2023-11-19T14:05:37;27.17;;;12.93;;
58240;SDS011;45058;55.772;38.224;2023-11-19T14:08:05;24.57;;;12.80;;
58240;SDS011;45058;55.772;38.224;2023-11-19T14:10:38;30.90;;;15.07;;
58240;SDS011;45058;55.772;38.224;2023-11-19T14:13:06;27.83;;;16.00;;
58240;SDS011;45058;55.772;38.224;2023-11-19T14:15:35;32.13;;;18.93;;
58240;SDS011;45058;55.772;38.224;2023-11-19T14:18:02;39.10;;;19.10;;
58240;SDS011;45058;55.772;38.224;2023-11-19T14:20:30;38.57;;;20.53;;
58240;SDS011;45058;55.772;38.224;2023-11-19T14:22:58;36.83;;;20.13;;
58240;SDS011;45058;55.772;38.224;2023-11-19T14:25:25;29.73;;;16.50;;
58240;SDS011;45058;55.772;38.224;2023-11-19T14:27:52;30.30;;;16.40;;
58240;SDS011;45058;55.772;38.224;2023-11-19T14:30:21;28.27;;;17.00;;
58240;SDS011;45058;55.772;38.224;2023-11-19T14:32:48;35.80;;;19.63;;
58240;SDS011;45058;55.772;38.224;2023-11-19T14:35:16;45.30;;;19.73;;
58240;SDS011;45058;55.772;38.224;2023-11-19T14:37:43;37.97;;;22.17;;
58240;SDS011;45058;55.772;38.224;2023-11-19T14:40:13;32.47;;;17.90;;
58240;SDS011;45058;55.772;38.224;2023-11-19T14:42:40;33.13;;;18.23;;